Terminal Aerodrome Forecast
Issued by NWS

Home | Current Version | Previous Version | Text Only | Print | Product List | Glossary On
Versions: 1 2 3 4 5 6 7 8 9 10 11 12 13 14 15 16
000
FTUS45 KPSR 191100
TAFIPL
TAF
KIPL 191120Z 1912/2012 27005KT P6SM FEW250
     FM191600 VRB04KT P6SM BKN200
     FM200500 27005KT P6SM BKN180=

USA.gov is the U.S. government's official web portal to all federal, state and local government web resources and services.